sensor_id;sensor_type;location;lat;lon;timestamp;temperature;humidity
3998;DHT22;61314;53.444;9.902;2023-10-13T13:38:43;18.80;99.90
3998;DHT22;61314;53.444;9.902;2023-10-13T13:41:14;19.00;99.90
3998;DHT22;61314;53.444;9.902;2023-10-13T13:43:47;19.00;99.90
3998;DHT22;61314;53.444;9.902;2023-10-13T13:46:17;19.00;99.90
3998;DHT22;61314;53.444;9.902;2023-10-13T13:48:45;19.00;99.90
3998;DHT22;61314;53.444;9.902;2023-10-13T13:51:14;19.00;99.90
3998;DHT22;61314;53.444;9.902;2023-10-13T13:53:42;19.00;99.90
3998;DHT22;61314;53.444;9.902;2023-10-13T13:56:11;19.00;99.90
3998;DHT22;61314;53.444;9.902;2023-10-13T13:58:49;19.00;99.90
3998;DHT22;61314;53.444;9.902;2023-10-13T14:01:22;19.00;99.90
3998;DHT22;61314;53.444;9.902;2023-10-13T14:03:52;19.00;99.90
3998;DHT22;61314;53.444;9.902;2023-10-13T14:06:24;19.00;99.90
3998;DHT22;61314;53.444;9.902;2023-10-13T14:08:52;19.00;99.90
3998;DHT22;61314;53.444;9.902;2023-10-13T14:11:25;19.00;99.90
3998;DHT22;61314;53.444;9.902;2023-10-13T14:14:23;19.00;99.90
3998;DHT22;61314;53.444;9.902;2023-10-13T14:16:53;19.00;99.90
3998;DHT22;61314;53.444;9.902;2023-10-13T14:19:29;19.00;99.90
3998;DHT22;61314;53.444;9.902;2023-10-13T14:21:56;19.00;99.90
3998;DHT22;61314;53.444;9.902;2023-10-13T14:24:24;18.90;99.90
3998;DHT22;61314;53.444;9.902;2023-10-13T14:26:56;18.90;99.90
3998;DHT22;61314;53.444;9.902;2023-10-13T14:29:22;18.90;99.90
3998;DHT22;61314;53.444;9.902;2023-10-13T14:31:53;18.90;99.90
3998;DHT22;61314;53.444;9.902;2023-10-13T14:34:20;18.90;99.90
3998;DHT22;61314;53.444;9.902;2023-10-13T14:36:48;18.90;99.90
3998;DHT22;61314;53.444;9.902;2023-10-13T14:39:15;18.80;99.90
3998;DHT22;61314;53.444;9.902;2023-10-13T14:41:42;18.80;99.90
3998;DHT22;61314;53.444;9.902;2023-10-13T14:44:08;18.80;99.90
3998;DHT22;61314;53.444;9.902;2023-10-13T14:46:35;18.80;99.90
3998;DHT22;61314;53.444;9.902;2023-10-13T14:49:02;18.90;99.90
3998;DHT22;61314;53.444;9.902;2023-10-13T14:51:29;18.80;99.90
3998;DHT22;61314;53.444;9.902;2023-10-13T14:53:58;18.80;99.90
3998;DHT22;61314;53.444;9.902;2023-10-13T14:56:30;18.80;99.90
3998;DHT22;61314;53.444;9.902;2023-10-13T14:58:57;18.80;99.90
3998;DHT22;61314;53.444;9.902;2023-10-13T15:01:23;18.80;99.90
3998;DHT22;61314;53.444;9.902;2023-10-13T15:03:54;18.80;99.90
3998;DHT22;61314;53.444;9.902;2023-10-13T15:06:26;18.80;99.90
3998;DHT22;61314;53.444;9.902;2023-10-13T15:08:57;18.80;99.90
3998;DHT22;61314;53.444;9.902;2023-10-13T15:11:26;18.80;99.90
3998;DHT22;61314;53.444;9.902;2023-10-13T15:14:15;18.90;99.90
3998;DHT22;61314;53.444;9.902;2023-10-13T15:16:42;18.90;99.90
3998;DHT22;61314;53.444;9.902;2023-10-13T15:19:10;18.90;99.90
3998;DHT22;61314;53.444;9.902;2023-10-13T15:21:36;18.90;99.90
3998;DHT22;61314;53.444;9.902;2023-10-13T15:24:04;18.90;99.90
3998;DHT22;61314;53.444;9.902;2023-10-13T15:26:52;18.90;99.90
3998;DHT22;61314;53.444;9.902;2023-10-13T15:29:23;18.90;99.90
3998;DHT22;61314;53.444;9.902;2023-10-13T15:31:56;18.90;99.90
3998;DHT22;61314;53.444;9.902;2023-10-13T15:34:30;18.90;99.90
3998;DHT22;61314;53.444;9.902;2023-10-13T15:36:58;18.90;99.90
3998;DHT22;61314;53.444;9.902;2023-10-13T15:39:25;19.00;99.90
3998;DHT22;61314;53.444;9.902;2023-10-13T15:41:56;18.90;99.90
3998;DHT22;61314;53.444;9.902;2023-10-13T15:44:26;18.90;99.90
3998;DHT22;61314;53.444;9.902;2023-10-13T15:46:57;18.90;99.90
3998;DHT22;61314;53.444;9.902;2023-10-13T15:49:29;18.90;99.90
3998;DHT22;61314;53.444;9.902;2023-10-13T15:51:57;18.90;99.90
3998;DHT22;61314;53.444;9.902;2023-10-13T15:54:24;18.90;99.90
3998;DHT22;61314;53.444;9.902;2023-10-13T15:56:51;18.90;99.90
3998;DHT22;61314;53.444;9.902;2023-10-13T15:59:18;18.90;99.90
3998;DHT22;61314;53.444;9.902;2023-10-13T16:01:44;18.90;99.90
3998;DHT22;61314;53.444;9.902;2023-10-13T16:04:13;18.90;99.90
3998;DHT22;61314;53.444;9.902;2023-10-13T16:06:41;18.90;99.90
3998;DHT22;61314;53.444;9.902;2023-10-13T16:09:08;18.90;99.90
3998;DHT22;61314;53.444;9.902;2023-10-13T16:11:43;18.90;99.90
3998;DHT22;61314;53.444;9.902;2023-10-13T16:14:10;18.90;99.90
3998;DHT22;61314;53.444;9.902;2023-10-13T16:16:37;18.90;99.90
3998;DHT22;61314;53.444;9.902;2023-10-13T16:19:04;18.90;99.90
3998;DHT22;61314;53.444;9.902;2023-10-13T16:21:31;18.90;99.90
3998;DHT22;61314;53.444;9.902;2023-10-13T16:24:00;18.90;99.90
3998;DHT22;61314;53.444;9.902;2023-10-13T16:26:27;18.90;99.90
3998;DHT22;61314;53.444;9.902;2023-10-13T16:28:57;18.90;99.90
3998;DHT22;61314;53.444;9.902;2023-10-13T16:31:25;18.90;99.90
3998;DHT22;61314;53.444;9.902;2023-10-13T16:33:55;18.90;99.90
3998;DHT22;61314;53.444;9.902;2023-10-13T16:36:25;18.90;99.90
3998;DHT22;61314;53.444;9.902;2023-10-13T16:38:52;18.80;99.90
3998;DHT22;61314;53.444;9.902;2023-10-13T16:41:19;18.90;99.90
3998;DHT22;61314;53.444;9.902;2023-10-13T16:43:45;18.90;99.90
3998;DHT22;61314;53.444;9.902;2023-10-13T16:46:12;18.90;99.90
3998;DHT22;61314;53.444;9.902;2023-10-13T16:48:39;18.90;99.90
3998;DHT22;61314;53.444;9.902;2023-10-13T16:51:06;18.80;99.90
3998;DHT22;61314;53.444;9.902;2023-10-13T16:53:39;18.80;99.90
3998;DHT22;61314;53.444;9.902;2023-10-13T16:56:08;18.80;99.90
3998;DHT22;61314;53.444;9.902;2023-10-13T16:58:35;18.80;99.90
3998;DHT22;61314;53.444;9.902;2023-10-13T17:01:01;18.70;99.90
3998;DHT22;61314;53.444;9.902;2023-10-13T17:03:31;18.70;99.90
3998;DHT22;61314;53.444;9.902;2023-10-13T17:05:58;18.70;99.90
3998;DHT22;61314;53.444;9.902;2023-10-13T17:08:28;18.60;99.90
3998;DHT22;61314;53.444;9.902;2023-10-13T17:11:17;18.60;99.90
3998;DHT22;61314;53.444;9.902;2023-10-13T17:13:46;18.60;99.90
3998;DHT22;61314;53.444;9.902;2023-10-13T17:16:17;18.60;99.90
3998;DHT22;61314;53.444;9.902;2023-10-13T17:18:46;18.60;99.90
3998;DHT22;61314;53.444;9.902;2023-10-13T17:21:21;18.60;99.90
3998;DHT22;61314;53.444;9.902;2023-10-13T17:23:49;18.60;99.90
3998;DHT22;61314;53.444;9.902;2023-10-13T17:26:21;18.60;99.90
3998;DHT22;61314;53.444;9.902;2023-10-13T17:28:50;18.50;99.90
3998;DHT22;61314;53.444;9.902;2023-10-13T17:31:16;18.50;99.90
3998;DHT22;61314;53.444;9.902;2023-10-13T17:33:46;18.50;99.90
3998;DHT22;61314;53.444;9.902;2023-10-13T17:36:13;18.50;99.90
3998;DHT22;61314;53.444;9.902;2023-10-13T17:38:40;18.50;99.90
3998;DHT22;61314;53.444;9.902;2023-10-13T17:41:11;18.50;99.90
3998;DHT22;61314;53.444;9.902;2023-10-13T17:43:38;18.50;99.90
3998;DHT22;61314;53.444;9.902;2023-10-13T17:46:07;18.50;99.90
3998;DHT22;61314;53.444;9.902;2023-10-13T17:48:34;18.50;99.90
3998;DHT22;61314;53.444;9.902;2023-10-13T17:51:07;18.50;99.90
3998;DHT22;61314;53.444;9.902;2023-10-13T17:53:37;18.50;99.90
3998;DHT22;61314;53.444;9.902;2023-10-13T17:56:11;18.50;99.90
3998;DHT22;61314;53.444;9.902;2023-10-13T17:58:45;18.40;99.90
3998;DHT22;61314;53.444;9.902;2023-10-13T18:01:14;18.40;99.90
3998;DHT22;61314;53.444;9.902;2023-10-13T18:03:45;18.40;99.90
3998;DHT22;61314;53.444;9.902;2023-10-13T18:06:22;18.40;99.90
3998;DHT22;61314;53.444;9.902;2023-10-13T18:08:51;18.40;99.90
3998;DHT22;61314;53.444;9.902;2023-10-13T18:11:19;18.40;99.90
3998;DHT22;61314;53.444;9.902;2023-10-13T18:13:46;18.40;99.90
3998;DHT22;61314;53.444;9.902;2023-10-13T18:16:16;18.40;99.90
3998;DHT22;61314;53.444;9.902;2023-10-13T18:18:43;18.40;99.90
3998;DHT22;61314;53.444;9.902;2023-10-13T18:21:11;18.40;99.90
3998;DHT22;61314;53.444;9.902;2023-10-13T18:23:39;18.30;99.90
3998;DHT22;61314;53.444;9.902;2023-10-13T18:26:10;18.30;99.90
3998;DHT22;61314;53.444;9.902;2023-10-13T18:28:42;18.30;99.90
3998;DHT22;61314;53.444;9.902;2023-10-13T18:31:10;18.30;99.90
3998;DHT22;61314;53.444;9.902;2023-10-13T18:33:40;18.30;99.90
3998;DHT22;61314;53.444;9.902;2023-10-13T18:36:21;18.30;99.90
3998;DHT22;61314;53.444;9.902;2023-10-13T18:38:51;18.30;99.90
3998;DHT22;61314;53.444;9.902;2023-10-13T18:41:18;18.20;99.90
3998;DHT22;61314;53.444;9.902;2023-10-13T18:43:52;18.20;99.90
3998;DHT22;61314;53.444;9.902;2023-10-13T18:46:19;18.20;99.90
3998;DHT22;61314;53.444;9.902;2023-10-13T18:48:52;18.20;99.90
3998;DHT22;61314;53.444;9.902;2023-10-13T18:51:24;18.20;99.90
3998;DHT22;61314;53.444;9.902;2023-10-13T18:53:52;18.10;99.90
3998;DHT22;61314;53.444;9.902;2023-10-13T18:56:23;18.10;99.90
3998;DHT22;61314;53.444;9.902;2023-10-13T18:58:53;18.10;99.90
3998;DHT22;61314;53.444;9.902;2023-10-13T19:01:28;18.10;99.90
3998;DHT22;61314;53.444;9.902;2023-10-13T19:04:00;18.10;99.90
3998;DHT22;61314;53.444;9.902;2023-10-13T19:06:34;18.10;99.90
3998;DHT22;61314;53.444;9.902;2023-10-13T19:09:01;18.00;99.90
3998;DHT22;61314;53.444;9.902;2023-10-13T19:11:32;18.00;99.90
3998;DHT22;61314;53.444;9.902;2023-10-13T19:14:02;18.00;99.90
3998;DHT22;61314;53.444;9.902;2023-10-13T19:16:29;18.00;99.90
3998;DHT22;61314;53.444;9.902;2023-10-13T19:18:58;18.00;99.90
3998;DHT22;61314;53.444;9.902;2023-10-13T19:21:31;17.90;99.90
3998;DHT22;61314;53.444;9.902;2023-10-13T19:24:05;17.90;99.90
3998;DHT22;61314;53.444;9.902;2023-10-13T19:26:33;17.90;99.90
3998;DHT22;61314;53.444;9.902;2023-10-13T19:29:04;17.90;99.90
3998;DHT22;61314;53.444;9.902;2023-10-13T19:31:32;17.90;99.90
3998;DHT22;61314;53.444;9.902;2023-10-13T19:34:01;17.80;99.90
3998;DHT22;61314;53.444;9.902;2023-10-13T19:36:29;17.80;99.90
3998;DHT22;61314;53.444;9.902;2023-10-13T19:39:00;17.90;99.90
3998;DHT22;61314;53.444;9.902;2023-10-13T19:41:35;17.90;99.90
3998;DHT22;61314;53.444;9.902;2023-10-13T19:44:03;17.90;99.90
3998;DHT22;61314;53.444;9.902;2023-10-13T19:46:32;17.90;99.90
3998;DHT22;61314;53.444;9.902;2023-10-13T19:48:59;17.90;99.90
3998;DHT22;61314;53.444;9.902;2023-10-13T19:51:30;17.90;99.90
3998;DHT22;61314;53.444;9.902;2023-10-13T19:53:59;17.90;99.90
3998;DHT22;61314;53.444;9.902;2023-10-13T19:56:29;18.00;99.90
3998;DHT22;61314;53.444;9.902;2023-10-13T19:58:56;18.00;99.90
3998;DHT22;61314;53.444;9.902;2023-10-13T20:01:23;17.90;99.90
3998;DHT22;61314;53.444;9.902;2023-10-13T20:03:52;17.90;99.90
3998;DHT22;61314;53.444;9.902;2023-10-13T20:06:24;17.90;99.90
3998;DHT22;61314;53.444;9.902;2023-10-13T20:08:52;18.00;99.90
3998;DHT22;61314;53.444;9.902;2023-10-13T20:11:20;18.00;99.90
3998;DHT22;61314;53.444;9.902;2023-10-13T20:13:47;18.00;99.90
3998;DHT22;61314;53.444;9.902;2023-10-13T20:16:14;18.00;99.90
3998;DHT22;61314;53.444;9.902;2023-10-13T20:18:47;17.90;99.90
3998;DHT22;61314;53.444;9.902;2023-10-13T20:21:14;17.90;99.90
3998;DHT22;61314;53.444;9.902;2023-10-13T20:23:41;17.90;99.90
3998;DHT22;61314;53.444;9.902;2023-10-13T20:26:08;17.90;99.90
3998;DHT22;61314;53.444;9.902;2023-10-13T20:28:36;17.90;99.90
3998;DHT22;61314;53.444;9.902;2023-10-13T20:31:02;17.90;99.90
3998;DHT22;61314;53.444;9.902;2023-10-13T20:33:29;17.80;99.90
3998;DHT22;61314;53.444;9.902;2023-10-13T20:35:56;17.80;99.90
3998;DHT22;61314;53.444;9.902;2023-10-13T20:38:23;17.70;99.90
3998;DHT22;61314;53.444;9.902;2023-10-13T20:41:01;17.70;99.90
3998;DHT22;61314;53.444;9.902;2023-10-13T20:43:30;17.60;99.90
3998;DHT22;61314;53.444;9.902;2023-10-13T20:45:57;17.60;99.90
3998;DHT22;61314;53.444;9.902;2023-10-13T20:48:29;17.50;99.90
3998;DHT22;61314;53.444;9.902;2023-10-13T20:51:03;17.50;99.90
3998;DHT22;61314;53.444;9.902;2023-10-13T20:53:36;17.50;99.90
3998;DHT22;61314;53.444;9.902;2023-10-13T20:56:10;17.40;99.90
3998;DHT22;61314;53.444;9.902;2023-10-13T21:13:34;17.40;99.90
3998;DHT22;61314;53.444;9.902;2023-10-13T21:16:01;17.20;99.90
3998;DHT22;61314;53.444;9.902;2023-10-13T21:18:28;17.20;99.90
3998;DHT22;61314;53.444;9.902;2023-10-13T21:21:08;17.20;99.90
3998;DHT22;61314;53.444;9.902;2023-10-13T21:23:36;17.20;99.90
3998;DHT22;61314;53.444;9.902;2023-10-13T21:26:03;17.10;99.90
3998;DHT22;61314;53.444;9.902;2023-10-13T21:28:29;17.10;99.90
3998;DHT22;61314;53.444;9.902;2023-10-13T21:31:08;17.10;99.90
3998;DHT22;61314;53.444;9.902;2023-10-13T21:33:38;17.10;99.90
3998;DHT22;61314;53.444;9.902;2023-10-13T21:36:10;17.10;99.90
3998;DHT22;61314;53.444;9.902;2023-10-13T21:38:44;17.00;99.90
3998;DHT22;61314;53.444;9.902;2023-10-13T21:41:17;17.00;99.90
3998;DHT22;61314;53.444;9.902;2023-10-13T21:43:49;17.00;99.90
3998;DHT22;61314;53.444;9.902;2023-10-13T21:46:21;17.00;99.90
3998;DHT22;61314;53.444;9.902;2023-10-13T21:48:52;17.00;99.90
3998;DHT22;61314;53.444;9.902;2023-10-13T21:51:20;17.00;99.90
3998;DHT22;61314;53.444;9.902;2023-10-13T21:53:51;16.90;99.90
3998;DHT22;61314;53.444;9.902;2023-10-13T21:56:20;16.90;99.90
3998;DHT22;61314;53.444;9.902;2023-10-13T21:58:47;16.90;99.90
3998;DHT22;61314;53.444;9.902;2023-10-13T22:01:15;16.90;99.90
3998;DHT22;61314;53.444;9.902;2023-10-13T22:03:52;16.90;99.90
3998;DHT22;61314;53.444;9.902;2023-10-13T22:06:20;16.90;99.90
3998;DHT22;61314;53.444;9.902;2023-10-13T22:08:48;16.80;99.90
3998;DHT22;61314;53.444;9.902;2023-10-13T22:11:16;16.80;99.90
3998;DHT22;61314;53.444;9.902;2023-10-13T22:13:44;16.80;99.90
3998;DHT22;61314;53.444;9.902;2023-10-13T22:16:15;16.80;99.90
3998;DHT22;61314;53.444;9.902;2023-10-13T22:18:45;16.80;99.90
3998;DHT22;61314;53.444;9.902;2023-10-13T22:21:13;16.80;99.90
3998;DHT22;61314;53.444;9.902;2023-10-13T22:23:41;16.80;99.90
3998;DHT22;61314;53.444;9.902;2023-10-13T22:26:08;16.80;99.90
3998;DHT22;61314;53.444;9.902;2023-10-13T22:28:39;16.90;99.90
3998;DHT22;61314;53.444;9.902;2023-10-13T22:31:10;16.90;99.90
3998;DHT22;61314;53.444;9.902;2023-10-13T22:33:44;16.90;99.90
3998;DHT22;61314;53.444;9.902;2023-10-13T22:36:11;16.90;99.90
3998;DHT22;61314;53.444;9.902;2023-10-13T22:38:39;16.90;99.90
3998;DHT22;61314;53.444;9.902;2023-10-13T22:41:09;16.90;99.90
3998;DHT22;61314;53.444;9.902;2023-10-13T22:43:38;16.90;99.90
3998;DHT22;61314;53.444;9.902;2023-10-13T22:46:08;16.90;99.90
3998;DHT22;61314;53.444;9.902;2023-10-13T22:48:35;16.90;99.90
3998;DHT22;61314;53.444;9.902;2023-10-13T22:51:02;16.90;99.90
3998;DHT22;61314;53.444;9.902;2023-10-13T22:53:34;16.90;99.90
3998;DHT22;61314;53.444;9.902;2023-10-13T22:56:00;16.90;99.90
3998;DHT22;61314;53.444;9.902;2023-10-13T22:58:27;16.90;99.90
3998;DHT22;61314;53.444;9.902;2023-10-13T23:00:54;16.90;99.90
3998;DHT22;61314;53.444;9.902;2023-10-13T23:03:21;16.90;99.90
3998;DHT22;61314;53.444;9.902;2023-10-13T23:05:49;17.00;99.90
3998;DHT22;61314;53.444;9.902;2023-10-13T23:08:22;17.00;99.90
3998;DHT22;61314;53.444;9.902;2023-10-13T23:11:02;17.00;99.90
3998;DHT22;61314;53.444;9.902;2023-10-13T23:13:47;17.00;99.90
3998;DHT22;61314;53.444;9.902;2023-10-13T23:16:23;17.00;99.90
3998;DHT22;61314;53.444;9.902;2023-10-13T23:18:51;17.00;99.90
3998;DHT22;61314;53.444;9.902;2023-10-13T23:21:18;17.00;99.90
3998;DHT22;61314;53.444;9.902;2023-10-13T23:23:46;17.00;99.90
3998;DHT22;61314;53.444;9.902;2023-10-13T23:26:20;17.00;99.90
3998;DHT22;61314;53.444;9.902;2023-10-13T23:28:49;17.00;99.90
3998;DHT22;61314;53.444;9.902;2023-10-13T23:31:24;17.00;99.90
3998;DHT22;61314;53.444;9.902;2023-10-13T23:33:52;17.00;99.90
3998;DHT22;61314;53.444;9.902;2023-10-13T23:36:22;17.00;99.90
3998;DHT22;61314;53.444;9.902;2023-10-13T23:38:49;16.90;99.90
3998;DHT22;61314;53.444;9.902;2023-10-13T23:41:19;17.00;99.90
3998;DHT22;61314;53.444;9.902;2023-10-13T23:43:46;17.00;99.90
3998;DHT22;61314;53.444;9.902;2023-10-13T23:46:15;16.90;99.90
3998;DHT22;61314;53.444;9.902;2023-10-13T23:48:42;16.90;99.90
3998;DHT22;61314;53.444;9.902;2023-10-13T23:51:13;16.90;99.90
3998;DHT22;61314;53.444;9.902;2023-10-13T23:53:48;16.90;99.90
3998;DHT22;61314;53.444;9.902;2023-10-13T23:56:15;17.00;99.90
3998;DHT22;61314;53.444;9.902;2023-10-13T23:58:44;16.90;99.90
